createdAt,value
2018-11-21T00:00:01.629Z,96379.14
2018-11-21T00:02:28.445Z,96387.73
2018-11-21T00:04:55.257Z,96390.34
2018-11-21T00:07:22.033Z,96396.85
2018-11-21T00:09:48.811Z,96397.35
2018-11-21T00:12:15.605Z,96392.16
2018-11-21T00:14:42.349Z,96391.13
2018-11-21T00:17:09.095Z,96383.30
2018-11-21T00:19:35.872Z,96391.11
2018-11-21T00:22:02.624Z,96391.64
2018-11-21T00:24:29.386Z,96398.67
2018-11-21T00:26:56.157Z,96401.54
2018-11-21T00:29:22.954Z,96403.11
2018-11-21T00:31:49.713Z,96402.83
2018-11-21T00:34:16.486Z,96405.16
2018-11-21T00:36:43.269Z,96408.55
2018-11-21T00:39:10.681Z,96407.53
2018-11-21T00:41:37.525Z,96401.00
2018-11-21T00:44:04.322Z,96407.00
2018-11-21T00:46:31.107Z,96407.00
2018-11-21T00:48:57.890Z,96404.67
2018-11-21T00:51:24.683Z,96403.34
2018-11-21T00:53:51.432Z,96404.41
2018-11-21T00:56:18.180Z,96415.33
2018-11-21T00:58:44.965Z,96410.66
2018-11-21T01:01:11.744Z,96414.05
2018-11-21T01:03:38.519Z,96421.58
2018-11-21T01:06:05.317Z,96418.98
2018-11-21T01:08:32.241Z,96426.80
2018-11-21T01:10:59.007Z,96421.86
2018-11-21T01:13:25.916Z,96426.03
2018-11-21T01:15:52.705Z,96421.08
2018-11-21T01:18:19.495Z,96423.67
2018-11-21T01:20:46.374Z,96426.02
2018-11-21T01:23:13.104Z,96427.56
2018-11-21T01:25:39.963Z,96426.27
2018-11-21T01:28:06.743Z,96424.72
2018-11-21T01:30:33.544Z,96419.75
2018-11-21T01:33:00.317Z,96422.10
2018-11-21T01:35:27.110Z,96418.98
2018-11-21T01:37:53.828Z,96420.54
2018-11-21T01:40:20.681Z,96417.92
2018-11-21T01:42:47.437Z,96407.02
2018-11-21T01:45:14.236Z,96409.63
2018-11-21T01:47:40.972Z,96413.25
2018-11-21T01:50:08.120Z,96417.92
2018-11-21T01:52:34.923Z,96411.17
2018-11-21T01:55:01.720Z,96413.25
2018-11-21T01:57:28.501Z,96417.14
2018-11-21T01:59:55.271Z,96415.86
2018-11-21T02:02:22.116Z,96418.45
2018-11-21T02:04:48.871Z,96415.58
2018-11-21T02:07:15.667Z,96417.65
2018-11-21T02:09:42.522Z,96420.80
2018-11-21T02:12:09.286Z,96426.80
2018-11-21T02:14:36.074Z,96425.25
2018-11-21T02:17:02.858Z,96424.16
2018-11-21T02:19:30.013Z,96425.98
2018-11-21T02:21:56.800Z,96427.02
2018-11-21T02:24:23.625Z,96425.71
2018-11-21T02:26:50.379Z,96428.31
2018-11-21T02:29:17.162Z,96419.44
2018-11-21T02:31:43.976Z,96427.03
2018-11-21T02:34:10.767Z,96427.80
2018-11-21T02:36:37.581Z,96424.41
2018-11-21T02:39:07.443Z,96417.11
2018-11-21T02:41:34.204Z,96411.13
2018-11-21T02:44:00.963Z,96411.93
2018-11-21T02:46:27.774Z,96410.91
2018-11-21T02:48:54.524Z,96415.32
2018-11-21T02:51:21.327Z,96411.16
2018-11-21T02:53:48.131Z,96414.30
2018-11-21T02:56:14.895Z,96411.66
2018-11-21T02:58:41.651Z,96412.97
2018-11-21T03:01:08.436Z,96417.92
2018-11-21T03:03:35.273Z,96415.58
2018-11-21T03:06:02.033Z,96421.03
2018-11-21T03:08:28.857Z,96424.42
2018-11-21T03:10:55.632Z,96433.02
2018-11-21T03:13:28.159Z,96433.02
2018-11-21T03:15:49.177Z,96435.09
2018-11-21T03:18:15.941Z,96436.16
2018-11-21T03:20:42.735Z,96439.80
2018-11-21T03:23:09.513Z,96439.00
2018-11-21T03:25:36.302Z,96434.84
2018-11-21T03:28:03.117Z,96436.67
2018-11-21T03:30:29.886Z,96439.80
2018-11-21T03:32:56.636Z,96434.59
2018-11-21T03:35:23.431Z,96437.45
2018-11-21T03:37:51.083Z,96437.97
2018-11-21T03:40:17.846Z,96432.22
2018-11-21T03:42:44.609Z,96431.43
2018-11-21T03:45:12.121Z,96435.35
2018-11-21T03:47:38.992Z,96435.36
2018-11-21T03:50:07.675Z,96436.13
2018-11-21T03:52:34.448Z,96431.70
2018-11-21T03:55:01.219Z,96437.69
2018-11-21T03:57:28.025Z,96443.42
2018-11-21T03:59:54.844Z,96439.00
2018-11-21T04:02:21.633Z,96436.66
2018-11-21T04:04:48.401Z,96442.64
2018-11-21T04:07:15.168Z,96439.78
2018-11-21T04:09:41.962Z,96443.68
2018-11-21T04:12:08.720Z,96448.64
2018-11-21T04:14:35.524Z,96449.40
2018-11-21T04:17:02.293Z,96453.59
2018-11-21T04:19:29.085Z,96455.16
2018-11-21T04:21:55.833Z,96453.60
2018-11-21T04:24:22.641Z,96453.60
2018-11-21T04:26:49.425Z,96454.64
2018-11-21T04:29:16.208Z,96451.00
2018-11-21T04:31:43.005Z,96455.13
2018-11-21T04:34:09.800Z,96451.77
2018-11-21T04:36:36.560Z,96450.20
2018-11-21T04:39:07.115Z,96451.25
2018-11-21T04:41:33.899Z,96462.67
2018-11-21T04:44:00.663Z,96470.50
2018-11-21T04:46:27.812Z,96471.80
2018-11-21T04:48:54.573Z,96471.02
2018-11-21T04:51:21.366Z,96472.59
2018-11-21T04:53:48.132Z,96478.83
2018-11-21T04:56:14.910Z,96483.00
2018-11-21T04:58:41.670Z,96485.08
2018-11-21T05:01:08.453Z,96484.56
2018-11-21T05:03:35.240Z,96486.13
2018-11-21T05:06:02.000Z,96494.47
2018-11-21T05:08:28.741Z,96492.36
2018-11-21T05:10:55.517Z,96502.54
2018-11-21T05:13:22.329Z,96495.74
2018-11-21T05:15:49.085Z,96499.14
2018-11-21T05:18:15.874Z,96499.12
2018-11-21T05:20:42.638Z,96496.53
2018-11-21T05:23:09.406Z,96505.38
2018-11-21T05:25:36.182Z,96507.99
2018-11-21T05:28:03.038Z,96502.26
2018-11-21T05:30:29.761Z,96507.72
2018-11-21T05:32:56.858Z,96509.81
2018-11-21T05:35:23.630Z,96521.02
2018-11-21T05:37:50.577Z,96526.48
2018-11-21T05:40:17.343Z,96528.57
2018-11-21T05:42:44.098Z,96528.83
2018-11-21T05:45:11.395Z,96523.08
2018-11-21T05:47:38.178Z,96524.14
2018-11-21T05:50:07.451Z,96523.61
2018-11-21T05:52:34.247Z,96531.18
2018-11-21T05:55:01.039Z,96534.30
2018-11-21T05:57:27.812Z,96539.23
2018-11-21T05:59:54.604Z,96536.90
2018-11-21T06:02:21.390Z,96540.02
2018-11-21T06:04:48.212Z,96550.17
2018-11-21T06:07:14.966Z,96546.28
2018-11-21T06:09:41.716Z,96542.89
2018-11-21T06:12:08.509Z,96549.67
2018-11-21T06:14:35.311Z,96558.02
2018-11-21T06:17:02.096Z,96564.78
2018-11-21T06:19:28.882Z,96554.59
2018-11-21T06:21:55.629Z,96562.45
2018-11-21T06:24:22.387Z,96560.62
2018-11-21T06:26:57.683Z,96564.01
2018-11-21T06:29:24.550Z,96566.08
2018-11-21T06:31:51.337Z,96568.70
2018-11-21T06:34:18.126Z,96576.27
2018-11-21T06:36:45.357Z,96561.89
2018-11-21T06:39:12.136Z,96562.69
2018-11-21T06:41:38.881Z,96553.30
2018-11-21T06:44:05.645Z,96568.92
2018-11-21T06:46:32.724Z,96565.80
2018-11-21T06:48:59.537Z,96568.43
2018-11-21T06:51:26.323Z,96573.91
2018-11-21T06:53:53.103Z,96569.47
2018-11-21T06:56:19.853Z,96569.43
2018-11-21T06:58:46.628Z,96571.80
2018-11-21T07:01:13.403Z,96577.80
2018-11-21T07:03:40.175Z,96575.44
2018-11-21T07:06:07.042Z,96575.72
2018-11-21T07:08:33.827Z,96575.70
2018-11-21T07:11:00.606Z,96567.34
2018-11-21T07:13:27.459Z,96573.88
2018-11-21T07:15:54.233Z,96574.91
2018-11-21T07:18:20.990Z,96579.33
2018-11-21T07:20:47.921Z,96583.78
2018-11-21T07:23:14.686Z,96588.47
2018-11-21T07:25:41.467Z,96592.09
2018-11-21T07:28:12.988Z,96593.67
2018-11-21T07:30:35.037Z,96586.09
2018-11-21T07:33:01.805Z,96590.26
2018-11-21T07:35:28.644Z,96589.48
2018-11-21T07:37:55.439Z,96598.12
2018-11-21T07:40:22.229Z,96598.36
2018-11-21T07:42:49.014Z,96596.52
2018-11-21T07:45:15.875Z,96594.97
2018-11-21T07:47:43.243Z,96600.72
2018-11-21T07:50:14.888Z,96598.36
2018-11-21T07:52:41.929Z,96598.35
2018-11-21T07:55:09.427Z,96610.38
2018-11-21T07:57:49.872Z,96612.44
2018-11-21T08:00:56.170Z,96617.66
2018-11-21T08:03:24.217Z,96623.41
2018-11-21T08:05:56.235Z,96625.47
2018-11-21T08:08:45.599Z,96630.45
2018-11-21T08:11:34.910Z,96622.89
2018-11-21T08:14:16.805Z,96618.17
2018-11-21T08:17:01.893Z,96623.38
2018-11-21T08:19:46.984Z,96626.79
2018-11-21T08:22:45.505Z,96627.56
2018-11-21T08:25:50.274Z,96622.09
2018-11-21T08:28:32.363Z,96619.99
2018-11-21T08:30:59.228Z,96612.94
2018-11-21T08:33:26.396Z,96628.58
2018-11-21T08:35:53.203Z,96627.81
2018-11-21T08:38:20.011Z,96629.38
2018-11-21T08:40:46.800Z,96635.64
2018-11-21T08:43:13.596Z,96631.20
2018-11-21T08:45:40.461Z,96635.10
2018-11-21T08:48:07.420Z,96637.98
2018-11-21T08:50:34.321Z,96642.89
2018-11-21T08:53:01.522Z,96645.77
2018-11-21T08:55:28.362Z,96641.86
2018-11-21T08:57:55.152Z,96634.83
2018-11-21T09:00:25.632Z,96631.69
2018-11-21T09:02:52.441Z,96642.90
2018-11-21T09:05:19.232Z,96641.05
2018-11-21T09:07:46.019Z,96644.42
2018-11-21T09:10:13.347Z,96641.03
2018-11-21T09:12:40.368Z,96639.98
2018-11-21T09:15:08.897Z,96646.47
2018-11-21T09:17:35.703Z,96645.44
2018-11-21T09:20:02.795Z,96649.90
2018-11-21T09:22:29.664Z,96649.91
2018-11-21T09:24:56.531Z,96650.16
2018-11-21T09:27:23.401Z,96660.86
2018-11-21T09:29:50.183Z,96662.14
2018-11-21T09:32:16.948Z,96665.54
2018-11-21T09:34:43.896Z,96667.60
2018-11-21T09:37:10.731Z,96664.75
2018-11-21T09:39:37.513Z,96666.27
2018-11-21T09:42:04.286Z,96672.58
2018-11-21T09:44:31.064Z,96669.95
2018-11-21T09:46:57.884Z,96672.30
2018-11-21T09:49:24.660Z,96676.47
2018-11-21T09:51:51.468Z,96679.32
2018-11-21T09:54:18.216Z,96680.35
2018-11-21T09:56:44.984Z,96675.67
2018-11-21T09:59:12.075Z,96680.58
2018-11-21T10:02:15.862Z,96676.98
2018-11-21T10:04:42.581Z,96673.84
2018-11-21T10:07:09.344Z,96676.96
2018-11-21T10:09:46.989Z,96679.56
2018-11-21T10:12:13.792Z,96674.03
2018-11-21T10:14:40.605Z,96679.56
2018-11-21T10:17:07.402Z,96680.63
2018-11-21T10:19:34.372Z,96680.04
2018-11-21T10:22:01.155Z,96674.83
2018-11-21T10:24:27.938Z,96670.90
2018-11-21T10:26:54.801Z,96670.13
2018-11-21T10:29:21.570Z,96671.47
2018-11-21T10:31:48.354Z,96676.66
2018-11-21T10:34:15.124Z,96677.42
2018-11-21T10:36:41.897Z,96671.73
2018-11-21T10:39:09.111Z,96676.96
2018-11-21T10:41:35.915Z,96678.54
2018-11-21T10:44:02.668Z,96684.51
2018-11-21T10:46:29.442Z,96681.64
2018-11-21T10:48:56.198Z,96679.84
2018-11-21T10:51:22.973Z,96681.12
2018-11-21T10:53:49.736Z,96681.12
2018-11-21T10:56:16.567Z,96675.63
2018-11-21T10:58:43.402Z,96676.41
2018-11-21T11:01:13.280Z,96672.78
2018-11-21T11:04:17.684Z,96677.45
2018-11-21T11:07:16.164Z,96674.83
2018-11-21T11:10:14.404Z,96675.91
2018-11-21T11:13:00.813Z,96673.55
2018-11-21T11:15:50.295Z,96672.78
2018-11-21T11:18:35.555Z,96676.19
2018-11-21T11:21:30.700Z,96675.41
2018-11-21T11:24:15.620Z,96679.83
2018-11-21T11:27:14.004Z,96679.56
2018-11-21T11:29:59.227Z,96673.83
2018-11-21T11:32:54.537Z,96679.81
2018-11-21T11:35:53.114Z,96676.68
2018-11-21T11:38:45.766Z,96682.41
2018-11-21T11:41:41.358Z,96675.34
2018-11-21T11:44:39.698Z,96674.56
2018-11-21T11:47:32.027Z,96670.14
2018-11-21T11:50:17.322Z,96665.71
2018-11-21T11:53:02.504Z,96667.80
2018-11-21T11:55:47.620Z,96667.51
2018-11-21T11:58:26.811Z,96665.67
2018-11-21T12:01:06.473Z,96665.41
2018-11-21T12:03:50.096Z,96660.93
2018-11-21T12:06:35.251Z,96659.42
2018-11-21T12:09:20.243Z,96658.59
2018-11-21T12:12:09.491Z,96651.53
2018-11-21T12:14:59.037Z,96651.27
2018-11-21T12:17:38.217Z,96649.16
2018-11-21T12:20:24.663Z,96653.05
2018-11-21T12:23:22.881Z,96653.58
2018-11-21T12:26:10.635Z,96655.91
2018-11-21T12:28:52.775Z,96645.20
2018-11-21T12:31:37.832Z,96645.16
2018-11-21T12:34:22.595Z,96647.00
2018-11-21T12:37:21.165Z,96647.03
2018-11-21T12:40:25.864Z,96644.16
2018-11-21T12:43:15.249Z,96641.28
2018-11-21T12:46:07.471Z,96644.66
2018-11-21T12:48:53.844Z,96642.80
2018-11-21T12:51:39.190Z,96648.07
2018-11-21T12:54:24.193Z,96649.30
2018-11-21T12:57:10.589Z,96648.58
2018-11-21T12:59:56.961Z,96649.10
2018-11-21T13:02:38.453Z,96648.59
2018-11-21T13:05:15.145Z,96653.51
2018-11-21T13:08:08.830Z,96656.14
2018-11-21T13:10:55.205Z,96654.34
2018-11-21T13:13:47.334Z,96659.57
2018-11-21T13:16:41.015Z,96659.28
2018-11-21T13:19:24.943Z,96663.48
2018-11-21T13:22:26.663Z,96668.17
2018-11-21T13:25:11.834Z,96665.56
2018-11-21T13:28:07.227Z,96662.21
2018-11-21T13:30:44.657Z,96669.23
2018-11-21T13:33:40.266Z,96665.31
2018-11-21T13:36:21.577Z,96671.05
2018-11-21T13:39:26.296Z,96677.31
2018-11-21T13:42:02.864Z,96680.95
2018-11-21T13:45:07.690Z,96680.47
2018-11-21T13:47:53.212Z,96682.81
2018-11-21T13:50:42.258Z,96683.02
2018-11-21T13:53:43.955Z,96687.78
2018-11-21T13:56:10.739Z,96685.16
2018-11-21T13:58:37.475Z,96689.33
2018-11-21T14:01:04.676Z,96685.89
2018-11-21T14:03:31.436Z,96689.52
2018-11-21T14:05:58.214Z,96686.14
2018-11-21T14:08:25.014Z,96687.98
2018-11-21T14:10:52.240Z,96689.52
2018-11-21T14:13:19.099Z,96697.12
2018-11-21T14:15:45.904Z,96697.12
2018-11-21T14:18:12.758Z,96701.01
2018-11-21T14:20:39.646Z,96691.58
2018-11-21T14:23:06.426Z,96694.77
2018-11-21T14:25:33.260Z,96699.20
2018-11-21T14:28:00.038Z,96696.34
2018-11-21T14:30:26.800Z,96704.62
2018-11-21T14:32:53.583Z,96704.66
2018-11-21T14:35:20.384Z,96705.21
2018-11-21T14:37:47.186Z,96710.73
2018-11-21T14:40:15.956Z,96709.92
2018-11-21T14:42:42.876Z,96709.42
2018-11-21T14:45:11.931Z,96711.00
2018-11-21T14:47:38.791Z,96713.83
2018-11-21T14:50:20.831Z,96714.39
2018-11-21T14:52:47.669Z,96718.53
2018-11-21T14:55:14.407Z,96724.78
2018-11-21T14:57:41.213Z,96730.80
2018-11-21T15:00:13.632Z,96723.48
2018-11-21T15:02:40.593Z,96729.19
2018-11-21T15:05:08.165Z,96723.23
2018-11-21T15:07:34.949Z,96724.80
2018-11-21T15:10:01.705Z,96728.45
2018-11-21T15:12:31.304Z,96736.53
2018-11-21T15:15:00.904Z,96732.89
2018-11-21T15:17:27.751Z,96736.81
2018-11-21T15:19:54.526Z,96737.09
2018-11-21T15:22:21.293Z,96733.40
2018-11-21T15:24:48.077Z,96733.93
2018-11-21T15:27:14.906Z,96735.00
2018-11-21T15:29:41.699Z,96735.00
2018-11-21T15:32:08.484Z,96730.05
2018-11-21T15:34:35.271Z,96736.05
2018-11-21T15:37:02.036Z,96737.10
2018-11-21T15:39:30.391Z,96741.53
2018-11-21T15:41:57.164Z,96741.27
2018-11-21T15:44:23.986Z,96745.45
2018-11-21T15:46:50.773Z,96745.97
2018-11-21T15:49:17.521Z,96747.24
2018-11-21T15:51:44.367Z,96749.86
2018-11-21T15:54:11.200Z,96753.27
2018-11-21T15:56:37.969Z,96751.98
2018-11-21T15:59:04.880Z,96755.89
2018-11-21T16:01:31.666Z,96762.92
2018-11-21T16:03:58.501Z,96765.53
2018-11-21T16:06:25.315Z,96761.85
2018-11-21T16:08:52.092Z,96765.50
2018-11-21T16:11:18.920Z,96760.00
2018-11-21T16:13:45.718Z,96770.76
2018-11-21T16:16:12.471Z,96772.34
2018-11-21T16:18:39.245Z,96770.48
2018-11-21T16:21:06.018Z,96782.01
2018-11-21T16:23:32.799Z,96782.23
2018-11-21T16:25:59.579Z,96779.39
2018-11-21T16:28:26.457Z,96782.78
2018-11-21T16:30:53.242Z,96782.80
2018-11-21T16:33:20.143Z,96786.45
2018-11-21T16:35:46.974Z,96791.42
2018-11-21T16:38:13.812Z,96786.95
2018-11-21T16:40:40.596Z,96788.30
2018-11-21T16:43:07.414Z,96799.24
2018-11-21T16:45:39.838Z,96800.02
2018-11-21T16:48:06.686Z,96801.62
2018-11-21T16:50:33.612Z,96802.92
2018-11-21T16:53:00.428Z,96807.58
2018-11-21T16:55:27.714Z,96807.36
2018-11-21T16:57:55.690Z,96811.27
2018-11-21T17:00:24.187Z,96809.97
2018-11-21T17:02:50.968Z,96816.47
2018-11-21T17:05:18.969Z,96817.02
2018-11-21T17:07:45.785Z,96811.00
2018-11-21T17:10:14.340Z,96814.14
2018-11-21T17:12:41.499Z,96816.50
2018-11-21T17:15:13.630Z,96815.70
2018-11-21T17:17:40.568Z,96815.45
2018-11-21T17:20:19.755Z,96825.12
2018-11-21T17:22:47.699Z,96815.70
2018-11-21T17:25:18.852Z,96829.55
2018-11-21T17:27:45.954Z,96828.52
2018-11-21T17:30:14.050Z,96829.03
2018-11-21T17:32:45.834Z,96835.05
2018-11-21T17:35:13.799Z,96841.04
2018-11-21T17:37:40.845Z,96840.00
2018-11-21T17:40:13.827Z,96840.80
2018-11-21T17:42:40.788Z,96843.92
2018-11-21T17:45:08.215Z,96846.27
2018-11-21T17:47:34.989Z,96847.06
2018-11-21T17:50:01.888Z,96843.66
2018-11-21T17:52:28.658Z,96841.56
2018-11-21T17:54:55.420Z,96848.88
2018-11-21T17:57:27.893Z,96848.11
2018-11-21T17:59:49.019Z,96852.02
2018-11-21T18:02:15.859Z,96855.67
